Wolgastern — CQLH — position and weather

sailwx.info

Track history (hours):
 
Tides and Currents Weather Stations Pressure Air Temp Water Temp Dewpoint Dewpoint Depression Visibility Wind Speed Wind Dir Waves Ship Positions

Wolgastern

Last reported at 2014-Dec-18 13:33 UTC. Time now 2014-Dec-18 22:26 UTC.
Position N 56°43' E 011°46'.

Length 162 m; draft 9 m.

Type: Ship. MMSI: 255804950.

Date/timePositionNaut miles runAvg speedWind from/ knotsBaromVisibWave heightAir tempDewpointWater temp
2014-Dec-18 13:33N 56°43' E 011°46'9 9.4
2014-Dec-18 12:33N 56°52' E 011°47'1211.8
2014-Dec-18 11:31N 57°03' E 011°39'1111.8
2014-Dec-18 10:34N 57°14' E 011°32'1212.0
2014-Dec-18 09:34N 57°25' E 011°25'1211.8
2014-Dec-18 08:33N 57°34' E 011°10'1312.0
2014-Dec-18 07:28N 57°43' E 010°52'1112.0
2014-Dec-18 06:32N 57°48' E 010°34'16511.7
2014-Dec-17 16:31N 58°14' E 005°26'  
Track history (hours):
 
Tides and Currents Weather Stations Pressure Air Temp Water Temp Dewpoint Dewpoint Depression Visibility Wind Speed Wind Dir Waves Ship Positions

Wolgastern

Last reported at 2014-Dec-18 13:33 UTC. Time now 2014-Dec-18 22:26 UTC.
Position N 56°43' E 011°46'.

Length 162 m; draft 9 m.

Type: Ship. MMSI: 255804950.

Date/timePositionNaut miles runAvg speedWind from/ knotsBaromVisibWave heightAir tempDewpointWater temp
2014-Dec-18 13:33N 56°43' E 011°46'9 9.4
2014-Dec-18 12:33N 56°52' E 011°47'1211.8
2014-Dec-18 11:31N 57°03' E 011°39'1111.8
2014-Dec-18 10:34N 57°14' E 011°32'1212.0
2014-Dec-18 09:34N 57°25' E 011°25'1211.8
2014-Dec-18 08:33N 57°34' E 011°10'1312.0
2014-Dec-18 07:28N 57°43' E 010°52'1112.0
2014-Dec-18 06:32N 57°48' E 010°34'16511.7
2014-Dec-17 16:31N 58°14' E 005°26'  

Dump ship's entire track history